Time;durP1;ratioP1;P1;durP2;ratioP2;P2;SDS_P1;SDS_P2;PMS_P1;PMS_P2;Temp;Humidity;BMP_temperature;BMP_pressure;BME280_temperature;BME280_humidity;BME280_pressure;Samples;Min_cycle;Max_cycle;Signal;HPM_P1;HPM_P2
2022/12/03 00:02:14;;;;;;;37.17;32.85;;;5.40;99.90;;;;;;4228217;28;20091;-84
2022/12/03 00:04:34;;;;;;;35.17;30.08;;;5.40;99.90;;;;;;4215478;28;20048;-84
2022/12/03 00:06:55;;;;;;;34.35;30.60;;;5.40;99.90;;;;;;4218590;28;20295;-84
2022/12/03 00:09:14;;;;;;;39.03;31.25;;;5.40;99.90;;;;;;4227140;28;20055;-84
2022/12/03 00:11:35;;;;;;;39.90;32.80;;;5.50;99.90;;;;;;4214385;28;20063;-84
2022/12/03 00:13:55;;;;;;;29.42;26.40;;;5.60;99.90;;;;;;4235966;28;20108;-84
2022/12/03 00:16:15;;;;;;;30.23;27.17;;;5.60;99.90;;;;;;4234386;28;20069;-83
2022/12/03 00:18:35;;;;;;;29.77;26.90;;;5.50;99.90;;;;;;4227784;28;20043;-84
2022/12/03 00:20:55;;;;;;;35.65;31.83;;;5.50;99.90;;;;;;4229060;28;20059;-84
2022/12/03 00:23:15;;;;;;;33.10;29.80;;;5.60;99.90;;;;;;4228147;28;20146;-84
2022/12/03 00:25:34;;;;;;;32.67;29.30;;;5.50;99.90;;;;;;4217815;28;20055;-84
2022/12/03 00:27:54;;;;;;;28.10;25.33;;;5.50;99.90;;;;;;4232197;28;20051;-84
2022/12/03 00:30:14;;;;;;;29.13;26.33;;;5.50;99.90;;;;;;4234138;28;20074;-84
2022/12/03 00:32:34;;;;;;;33.42;30.02;;;5.50;99.90;;;;;;4229043;28;20129;-84
2022/12/03 00:34:54;;;;;;;34.22;30.42;;;5.50;99.90;;;;;;4229500;28;20357;-84
2022/12/03 00:37:14;;;;;;;32.70;29.33;;;5.50;99.90;;;;;;4230898;28;20063;-84
2022/12/03 00:39:34;;;;;;;38.47;34.17;;;5.50;99.90;;;;;;4228297;28;20369;-83
2022/12/03 00:41:54;;;;;;;36.83;31.63;;;5.50;99.90;;;;;;4226439;28;20055;-84
2022/12/03 00:44:14;;;;;;;41.55;35.60;;;5.50;99.90;;;;;;4233196;28;20047;-84
2022/12/03 00:46:33;;;;;;;50.40;39.55;;;5.50;99.90;;;;;;4220756;28;20046;-84
2022/12/03 00:48:54;;;;;;;48.63;38.83;;;5.50;99.90;;;;;;4220216;28;20404;-84
2022/12/03 00:51:13;;;;;;;37.88;33.72;;;5.50;99.90;;;;;;4231115;28;20055;-84
2022/12/03 00:53:34;;;;;;;34.15;30.60;;;5.50;99.90;;;;;;4226756;28;20128;-84
2022/12/03 00:55:54;;;;;;;31.83;27.92;;;5.50;99.90;;;;;;4229958;28;20070;-84
2022/12/03 00:58:14;;;;;;;32.33;27.17;;;5.60;99.90;;;;;;4232712;28;20047;-84
2022/12/03 01:00:34;;;;;;;29.70;26.65;;;5.60;99.90;;;;;;4214979;28;20420;-84
2022/12/03 01:02:54;;;;;;;31.58;28.30;;;5.60;99.90;;;;;;4215030;28;20047;-84
2022/12/03 01:05:15;;;;;;;30.83;27.27;;;5.60;99.90;;;;;;4230476;28;20269;-84
2022/12/03 01:07:35;;;;;;;31.55;28.35;;;5.60;99.90;;;;;;4231473;28;20043;-84
2022/12/03 01:09:55;;;;;;;30.35;27.38;;;5.60;99.90;;;;;;4231514;28;20399;-84
2022/12/03 01:12:15;;;;;;;29.13;25.95;;;5.60;99.90;;;;;;4225029;28;20103;-84
2022/12/03 01:14:35;;;;;;;30.08;26.95;;;5.60;99.90;;;;;;4228245;28;20075;-84
2022/12/03 01:16:55;;;;;;;30.13;26.65;;;5.60;99.90;;;;;;4227604;28;20086;-84
2022/12/03 01:19:15;;;;;;;31.05;27.92;;;5.60;99.90;;;;;;4233759;28;20085;-84
2022/12/03 01:21:36;;;;;;;164.07;44.42;;;5.60;99.90;;;;;;4224884;28;20092;-84
2022/12/03 01:23:56;;;;;;;38.22;34.17;;;5.50;99.90;;;;;;4231224;28;20120;-83
2022/12/03 01:26:16;;;;;;;40.10;35.75;;;5.50;99.90;;;;;;4231809;28;20063;-84
2022/12/03 01:28:35;;;;;;;34.90;31.40;;;5.50;99.90;;;;;;4227885;28;20485;-84
2022/12/03 01:33:34;;;;;;;32.42;29.05;;;5.50;99.90;;;;;;4230872;28;20112;-84
2022/12/03 01:35:53;;;;;;;34.63;29.23;;;5.60;99.90;;;;;;4230439;28;20373;-84
2022/12/03 01:38:13;;;;;;;31.80;28.70;;;5.60;99.90;;;;;;4230957;28;20089;-84
2022/12/03 01:40:33;;;;;;;30.65;27.65;;;5.60;99.90;;;;;;4231284;28;20288;-84
2022/12/03 01:42:54;;;;;;;33.28;29.75;;;5.60;99.90;;;;;;4223345;28;20043;-84
2022/12/03 01:45:21;;;;;;;36.60;32.47;;;5.60;99.90;;;;;;4227154;28;20107;-84
2022/12/03 01:47:42;;;;;;;39.25;35.00;;;5.60;99.90;;;;;;4232033;28;20039;-84
2022/12/03 01:50:19;;;;;;;55.63;41.60;;;5.60;99.90;;;;;;4228046;28;20094;-84
2022/12/03 01:52:40;;;;;;;114.60;54.67;;;5.50;99.90;;;;;;4209890;28;20067;-84
2022/12/03 01:55:04;;;;;;;63.78;45.15;;;5.50;99.90;;;;;;4213711;28;20081;-84
2022/12/03 01:57:36;;;;;;;41.63;37.05;;;5.40;99.90;;;;;;4231103;28;20046;-84
2022/12/03 01:59:58;;;;;;;38.25;34.08;;;5.40;99.90;;;;;;4232922;28;20058;-84
2022/12/03 02:02:22;;;;;;;37.00;32.20;;;5.50;99.90;;;;;;4227780;28;20051;-84
2022/12/03 02:04:42;;;;;;;30.90;27.65;;;5.50;99.90;;;;;;4233238;28;20051;-85
2022/12/03 02:07:19;;;;;;;34.53;30.83;;;5.50;99.90;;;;;;4215743;28;20051;-84
2022/12/03 02:09:39;;;;;;;34.78;31.15;;;5.50;99.90;;;;;;4213891;28;20151;-85
2022/12/03 02:11:58;;;;;;;42.10;35.22;;;5.40;99.90;;;;;;4222368;28;20051;-85
2022/12/03 02:14:20;;;;;;;39.15;35.10;;;5.50;99.90;;;;;;4232112;28;20239;-84
2022/12/03 02:16:41;;;;;;;48.40;39.00;;;5.40;99.90;;;;;;4220559;28;20371;-84
2022/12/03 02:19:03;;;;;;;42.35;37.28;;;5.40;99.90;;;;;;4232369;28;20276;-84
2022/12/03 02:21:45;;;;;;;38.95;33.42;;;5.40;99.90;;;;;;4234603;28;20096;-84
2022/12/03 02:24:27;;;;;;;45.80;38.20;;;5.30;99.90;;;;;;4230544;28;20115;-84
2022/12/03 02:26:48;;;;;;;43.90;35.33;;;5.30;99.90;;;;;;4226119;28;20224;-84
2022/12/03 02:29:07;;;;;;;34.17;30.58;;;5.30;99.90;;;;;;4221631;28;20318;-84
2022/12/03 02:31:27;;;;;;;30.40;27.23;;;5.40;99.90;;;;;;4216339;28;20063;-84
2022/12/03 02:33:47;;;;;;;34.25;30.65;;;5.40;99.90;;;;;;4227460;28;20050;-84
2022/12/03 02:36:08;;;;;;;32.15;28.95;;;5.40;99.90;;;;;;4222375;28;20086;-84
2022/12/03 02:38:30;;;;;;;32.00;27.38;;;5.40;99.90;;;;;;4228128;28;20112;-84
2022/12/03 02:40:55;;;;;;;31.00;28.00;;;5.40;99.90;;;;;;4230193;28;20058;-84
2022/12/03 02:43:17;;;;;;;31.38;28.17;;;5.40;99.90;;;;;;4228366;28;20078;-84
2022/12/03 02:45:43;;;;;;;34.47;31.17;;;5.40;99.90;;;;;;4218381;28;20051;-84
2022/12/03 02:48:08;;;;;;;33.83;30.13;;;5.40;99.90;;;;;;4230080;28;20081;-84
2022/12/03 02:50:40;;;;;;;29.50;26.63;;;5.40;99.90;;;;;;4227457;28;20085;-84
2022/12/03 02:53:03;;;;;;;33.40;29.95;;;5.40;99.90;;;;;;4227637;28;20072;-84
2022/12/03 02:55:24;;;;;;;33.00;29.70;;;5.40;99.90;;;;;;4221752;28;20059;-84
2022/12/03 02:57:47;;;;;;;34.55;31.10;;;5.40;99.90;;;;;;4222628;28;20117;-84
2022/12/03 03:00:09;;;;;;;31.52;28.48;;;5.40;99.90;;;;;;4228502;28;20046;-84
2022/12/03 03:02:29;;;;;;;;;;;5.40;99.90;;;;;;4222685;28;20053;-84
2022/12/03 03:04:49;;;;;;;32.42;29.33;;;5.40;99.90;;;;;;4221835;28;19927;-84
2022/12/03 03:07:10;;;;;;;58.03;39.92;;;5.40;99.90;;;;;;4214491;28;20142;-84
2022/12/03 03:09:31;;;;;;;47.22;35.75;;;5.30;99.90;;;;;;4229850;28;20055;-84
2022/12/03 03:11:51;;;;;;;124.72;52.22;;;5.40;99.90;;;;;;4225638;28;20385;-84
2022/12/03 03:14:11;;;;;;;124.88;50.50;;;5.30;99.90;;;;;;4223812;28;20043;-84
2022/12/03 03:16:33;;;;;;;214.43;53.55;;;5.30;99.90;;;;;;4228103;28;20134;-84
2022/12/03 03:18:53;;;;;;;110.07;45.92;;;5.30;99.90;;;;;;4231475;28;20047;-84
2022/12/03 03:21:13;;;;;;;141.55;42.65;;;5.20;99.90;;;;;;4222239;28;20047;-84
2022/12/03 03:23:34;;;;;;;172.00;47.80;;;5.20;99.90;;;;;;4228947;28;20365;-84
2022/12/03 03:25:58;;;;;;;104.47;42.03;;;5.20;99.90;;;;;;4214477;28;20074;-85
2022/12/03 03:28:18;;;;;;;87.03;39.40;;;5.20;99.90;;;;;;4228521;28;20054;-84
2022/12/03 03:30:41;;;;;;;155.20;44.50;;;5.20;99.90;;;;;;4214842;28;20089;-84
2022/12/03 03:33:00;;;;;;;145.50;42.85;;;5.20;99.90;;;;;;4213252;28;20050;-84
2022/12/03 03:35:23;;;;;;;82.72;39.72;;;5.20;99.90;;;;;;4221393;28;20085;-84
2022/12/03 03:37:43;;;;;;;178.40;41.63;;;5.20;99.90;;;;;;4224705;28;20051;-84
2022/12/03 03:40:03;;;;;;;75.75;37.38;;;5.20;99.90;;;;;;4231218;28;20059;-84
2022/12/03 03:42:24;;;;;;;93.38;36.05;;;5.20;99.90;;;;;;4227794;28;20050;-84
2022/12/03 03:44:44;;;;;;;37.75;32.72;;;5.20;99.90;;;;;;4230287;28;20050;-84
2022/12/03 03:47:04;;;;;;;38.38;32.47;;;5.20;99.90;;;;;;4230977;28;20055;-84
2022/12/03 03:49:24;;;;;;;40.97;33.92;;;5.30;99.90;;;;;;4214058;28;20079;-84
2022/12/03 03:51:45;;;;;;;36.03;30.80;;;5.30;99.90;;;;;;4229294;28;20058;-84
2022/12/03 03:54:05;;;;;;;26.30;23.88;;;5.30;99.90;;;;;;4211359;28;20075;-84
2022/12/03 03:56:26;;;;;;;25.40;23.25;;;5.40;99.90;;;;;;4211869;28;20097;-83
2022/12/03 03:58:45;;;;;;;28.02;25.25;;;5.50;99.90;;;;;;4215257;28;20047;-84
2022/12/03 04:01:06;;;;;;;25.25;23.00;;;5.50;99.90;;;;;;4226743;28;20059;-84
2022/12/03 04:03:27;;;;;;;24.02;22.02;;;5.50;99.90;;;;;;4215881;28;20258;-84
2022/12/03 04:05:49;;;;;;;26.92;24.52;;;5.60;99.90;;;;;;4225793;28;20066;-84
2022/12/03 04:08:10;;;;;;;25.95;23.73;;;5.60;99.90;;;;;;4212574;28;20075;-84
2022/12/03 04:13:08;;;;;;;28.30;25.52;;;5.60;99.90;;;;;;4227400;28;20377;-84
2022/12/03 04:15:27;;;;;;;24.02;21.92;;;5.60;99.90;;;;;;4228719;28;20054;-84
2022/12/03 04:20:28;;;;;;;24.45;22.05;;;5.50;99.90;;;;;;4207203;28;20047;-84
2022/12/03 04:22:48;;;;;;;25.42;22.90;;;5.50;99.90;;;;;;4217496;28;20062;-84
2022/12/03 04:30:26;;;;;;;21.17;19.48;;;5.60;99.90;;;;;;4228457;28;20098;-84
2022/12/03 04:35:42;;;;;;;20.05;18.55;;;5.60;99.90;;;;;;4224176;28;20370;-84
2022/12/03 04:38:03;;;;;;;19.75;18.08;;;5.60;99.90;;;;;;4234506;28;20325;-84
2022/12/03 04:43:00;;;;;;;19.60;18.10;;;5.70;99.90;;;;;;4224374;28;20094;-84
2022/12/03 04:45:20;;;;;;;21.13;19.25;;;5.60;99.90;;;;;;4213276;28;20112;-84
2022/12/03 04:47:41;;;;;;;20.85;19.13;;;5.60;99.90;;;;;;4214616;28;20055;-85
2022/12/03 04:50:00;;;;;;;19.90;18.30;;;5.60;99.90;;;;;;4230111;28;20047;-85
2022/12/03 04:52:21;;;;;;;21.77;19.90;;;5.70;99.90;;;;;;4213414;28;20051;-84
2022/12/03 04:54:41;;;;;;;21.55;19.77;;;5.60;99.90;;;;;;4233006;28;20054;-84
2022/12/03 04:57:02;;;;;;;20.42;18.83;;;5.60;99.90;;;;;;4221052;28;20062;-84
2022/12/03 04:59:22;;;;;;;21.45;19.70;;;5.60;99.90;;;;;;4229304;28;20385;-84
2022/12/03 05:01:43;;;;;;;53.60;27.92;;;5.60;99.90;;;;;;4230242;28;20055;-84
2022/12/03 05:04:03;;;;;;;40.83;26.30;;;5.60;99.90;;;;;;4233006;28;20042;-84
2022/12/03 05:06:23;;;;;;;27.17;24.52;;;5.60;99.90;;;;;;4236479;28;20042;-85
2022/12/03 05:08:43;;;;;;;26.23;23.77;;;5.50;99.90;;;;;;4218954;28;20082;-84
2022/12/03 05:11:03;;;;;;;376.90;48.88;;;5.50;99.90;;;;;;4228179;28;20366;-84
2022/12/03 05:13:23;;;;;;;498.15;56.42;;;5.50;99.90;;;;;;4227607;28;20108;-84
2022/12/03 05:15:42;;;;;;;601.72;61.63;;;5.40;99.90;;;;;;4225762;28;20285;-84
2022/12/03 05:18:02;;;;;;;401.70;51.58;;;5.40;99.90;;;;;;4218170;28;20067;-84
2022/12/03 05:20:40;;;;;;;367.15;49.67;;;5.30;99.90;;;;;;4215816;28;20063;-84
2022/12/03 05:23:00;;;;;;;236.23;44.25;;;5.30;99.90;;;;;;4231301;28;20043;-84
2022/12/03 05:25:20;;;;;;;65.15;30.20;;;5.30;99.90;;;;;;4218560;28;20247;-84
2022/12/03 05:27:40;;;;;;;24.67;22.17;;;5.30;99.90;;;;;;4232089;28;20093;-84
2022/12/03 05:30:01;;;;;;;23.15;21.02;;;5.30;99.90;;;;;;4217249;28;20075;-85
2022/12/03 05:32:21;;;;;;;27.73;24.13;;;5.40;99.90;;;;;;4213924;28;20036;-85
2022/12/03 05:34:41;;;;;;;25.58;23.10;;;5.50;99.90;;;;;;4230355;28;20243;-84
2022/12/03 05:37:01;;;;;;;23.50;21.25;;;5.40;99.90;;;;;;4231030;28;20055;-84
2022/12/03 05:39:20;;;;;;;20.17;18.17;;;5.40;99.90;;;;;;4226445;28;20055;-84
2022/12/03 05:44:18;;;;;;;20.30;18.55;;;5.50;99.90;;;;;;4233080;28;20055;-84
2022/12/03 05:46:40;;;;;;;18.70;16.95;;;5.50;99.90;;;;;;4227169;28;20048;-84
2022/12/03 05:49:00;;;;;;;20.50;18.67;;;5.60;99.90;;;;;;4224462;28;20279;-85
2022/12/03 05:51:20;;;;;;;21.67;19.50;;;5.50;99.90;;;;;;4226988;28;20047;-83
2022/12/03 05:53:40;;;;;;;20.58;18.67;;;5.50;99.90;;;;;;4220619;28;20074;-84
2022/12/03 05:56:00;;;;;;;21.85;19.67;;;5.50;99.90;;;;;;4217554;28;20087;-84
2022/12/03 05:58:19;;;;;;;20.27;18.67;;;5.50;99.90;;;;;;4229771;28;20108;-84
2022/12/03 06:00:39;;;;;;;21.33;18.95;;;5.50;99.90;;;;;;4217230;28;20086;-84
2022/12/03 06:03:02;;;;;;;19.40;17.80;;;5.50;99.90;;;;;;4229531;28;20046;-84
2022/12/03 06:05:23;;;;;;;19.17;17.15;;;5.50;99.90;;;;;;4217916;28;20098;-84
2022/12/03 06:07:43;;;;;;;18.25;16.73;;;5.50;99.90;;;;;;4227248;28;20046;-85
2022/12/03 06:10:04;;;;;;;17.63;16.15;;;5.60;99.90;;;;;;4220703;28;20055;-85
2022/12/03 06:12:25;;;;;;;18.20;16.80;;;5.60;99.90;;;;;;4224693;28;20290;-84
2022/12/03 06:14:44;;;;;;;20.52;18.90;;;5.60;99.90;;;;;;4232139;28;20077;-85
2022/12/03 06:17:04;;;;;;;20.60;19.10;;;5.50;99.90;;;;;;4215854;28;20089;-84
2022/12/03 06:19:23;;;;;;;21.15;19.63;;;5.50;99.90;;;;;;4226144;28;20154;-84
2022/12/03 06:21:43;;;;;;;21.95;20.25;;;5.50;99.90;;;;;;4226960;28;20051;-84
2022/12/03 06:24:03;;;;;;;20.67;19.10;;;5.50;99.90;;;;;;4214098;28;20059;-85
2022/12/03 06:26:24;;;;;;;24.27;22.02;;;5.50;99.90;;;;;;4218621;28;20085;-84
2022/12/03 06:28:45;;;;;;;24.20;22.10;;;5.50;99.90;;;;;;4229564;28;20081;-84
2022/12/03 06:31:05;;;;;;;23.98;22.02;;;5.50;99.90;;;;;;4229898;28;20047;-84
2022/12/03 06:33:26;;;;;;;20.95;19.42;;;5.40;99.90;;;;;;4226396;28;20086;-85
2022/12/03 06:35:45;;;;;;;19.30;17.90;;;5.40;99.90;;;;;;4231267;28;20042;-84
2022/12/03 06:38:05;;;;;;;25.77;23.27;;;5.50;99.90;;;;;;4230819;28;20050;-85
2022/12/03 06:40:26;;;;;;;30.70;27.60;;;5.40;99.90;;;;;;4216638;28;20089;-84
2022/12/03 06:42:45;;;;;;;21.70;19.77;;;5.40;99.90;;;;;;4234786;28;20043;-84
2022/12/03 06:45:05;;;;;;;17.92;16.48;;;5.40;99.90;;;;;;4216455;28;20067;-85
2022/12/03 06:47:25;;;;;;;17.13;16.02;;;5.40;99.90;;;;;;4226179;28;20061;-84
2022/12/03 06:49:45;;;;;;;14.93;14.13;;;5.50;99.90;;;;;;4230693;28;20054;-84
2022/12/03 06:52:05;;;;;;;13.57;12.63;;;5.50;99.90;;;;;;4230812;28;20086;-84
2022/12/03 06:54:25;;;;;;;15.88;14.93;;;5.50;99.90;;;;;;4229883;28;20066;-84
2022/12/03 06:56:46;;;;;;;17.52;16.23;;;5.50;99.90;;;;;;4225948;28;20078;-84
2022/12/03 06:59:05;;;;;;;17.92;16.63;;;5.50;99.90;;;;;;4223785;28;20109;-85
2022/12/03 07:01:25;;;;;;;17.35;16.00;;;5.50;99.90;;;;;;4226510;28;20251;-84
2022/12/03 07:03:45;;;;;;;17.20;15.77;;;5.50;99.90;;;;;;4217561;28;20373;-84
2022/12/03 07:06:05;;;;;;;15.40;14.40;;;5.60;99.90;;;;;;4229989;28;20085;-85
2022/12/03 07:08:26;;;;;;;28.52;23.33;;;5.60;99.90;;;;;;4228861;28;20042;-85
2022/12/03 07:10:46;;;;;;;16.05;14.95;;;5.60;99.90;;;;;;4227276;28;20066;-84
2022/12/03 07:13:06;;;;;;;21.50;19.35;;;5.60;99.90;;;;;;4220190;28;20073;-84
2022/12/03 07:15:26;;;;;;;13.90;12.65;;;5.60;99.90;;;;;;4229008;28;20051;-85
2022/12/03 07:17:46;;;;;;;14.45;13.75;;;5.70;99.90;;;;;;4211454;28;20071;-84
2022/12/03 07:20:07;;;;;;;10.93;10.52;;;5.60;99.90;;;;;;4220435;28;20421;-85
2022/12/03 07:22:27;;;;;;;10.65;10.25;;;5.70;99.90;;;;;;4227487;28;20038;-85
2022/12/03 07:24:47;;;;;;;12.75;12.05;;;5.70;99.90;;;;;;4225446;28;20236;-85
2022/12/03 07:27:06;;;;;;;13.45;12.73;;;5.80;99.90;;;;;;4230167;28;20097;-85
2022/12/03 07:29:26;;;;;;;13.35;12.48;;;5.80;99.90;;;;;;4218845;28;20043;-84
2022/12/03 07:31:47;;;;;;;14.95;14.15;;;5.80;99.90;;;;;;4232637;28;20051;-85
2022/12/03 07:34:06;;;;;;;14.90;13.77;;;5.80;99.90;;;;;;4230678;28;20039;-85
2022/12/03 07:36:26;;;;;;;13.13;12.30;;;5.80;99.90;;;;;;4226456;28;20043;-85
2022/12/03 07:38:46;;;;;;;13.20;12.18;;;5.80;99.90;;;;;;4232484;28;20046;-86
2022/12/03 07:41:06;;;;;;;14.25;13.23;;;5.80;99.90;;;;;;4230819;28;20058;-86
2022/12/03 07:43:26;;;;;;;15.88;14.68;;;5.90;99.90;;;;;;4228083;28;20046;-85
2022/12/03 07:45:45;;;;;;;48.70;43.47;;;5.90;99.90;;;;;;4228370;28;20085;-84
2022/12/03 07:48:05;;;;;;;37.67;34.08;;;5.90;99.90;;;;;;4215409;28;20265;-80
2022/12/03 07:50:27;;;;;;;21.00;19.50;;;5.90;99.90;;;;;;4229989;28;20157;-80
2022/12/03 07:52:47;;;;;;;18.45;17.02;;;5.90;99.90;;;;;;4233135;28;20143;-80
2022/12/03 07:55:07;;;;;;;23.38;21.15;;;5.90;99.90;;;;;;4225187;28;20377;-80
2022/12/03 07:57:26;;;;;;;25.17;22.60;;;5.90;99.90;;;;;;4232627;28;20123;-80
2022/12/03 07:59:46;;;;;;;27.63;25.13;;;5.90;99.90;;;;;;4215280;28;20043;-80
2022/12/03 08:02:07;;;;;;;31.38;28.75;;;5.90;99.90;;;;;;4213588;28;20052;-80
2022/12/03 08:04:27;;;;;;;23.38;21.48;;;5.90;99.90;;;;;;4226147;28;20107;-80
2022/12/03 08:06:48;;;;;;;18.65;16.88;;;6.00;99.90;;;;;;4227156;28;20047;-80
2022/12/03 08:09:07;;;;;;;17.67;16.33;;;6.10;99.90;;;;;;4215735;28;20055;-80
2022/12/03 08:11:34;;;;;;;40.05;33.78;;;6.10;99.90;;;;;;4230359;28;20230;-80
2022/12/03 08:13:54;;;;;;;20.23;18.70;;;6.10;99.90;;;;;;4232036;28;20077;-80
2022/12/03 08:16:17;;;;;;;18.30;16.77;;;6.20;99.90;;;;;;4217843;28;20054;-80
2022/12/03 08:18:38;;;;;;;17.02;15.93;;;6.20;99.90;;;;;;4215549;28;20043;-80
2022/12/03 08:20:58;;;;;;;30.95;26.20;;;6.20;99.90;;;;;;4229798;28;20047;-81
2022/12/03 08:23:20;;;;;;;152.27;73.13;;;6.30;99.90;;;;;;4233745;28;20054;-81
2022/12/03 08:25:43;;;;;;;144.07;78.93;;;6.20;99.90;;;;;;4227151;28;20055;-80
2022/12/03 08:28:12;;;;;;;;;;;6.10;99.90;;;;;;4226437;28;20043;-80
2022/12/03 08:30:32;;;;;;;88.70;43.45;;;6.10;99.90;;;;;;4230890;28;19931;-80
2022/12/03 08:32:52;;;;;;;89.65;42.53;;;6.00;99.90;;;;;;4216349;28;20244;-80
2022/12/03 08:35:19;;;;;;;48.55;36.60;;;6.00;99.90;;;;;;4233325;28;20050;-80
2022/12/03 08:37:40;;;;;;;44.63;36.63;;;6.00;99.90;;;;;;4231077;28;20408;-80
2022/12/03 08:40:00;;;;;;;37.78;33.42;;;6.10;99.90;;;;;;4219406;28;20094;-80
2022/12/03 08:42:41;;;;;;;25.13;22.70;;;6.10;99.90;;;;;;4230183;28;20066;-80
2022/12/03 08:45:22;;;;;;;25.13;22.67;;;6.10;99.90;;;;;;4229365;28;20101;-80
2022/12/03 08:47:42;;;;;;;21.88;20.00;;;6.20;99.90;;;;;;4229913;28;20098;-80
2022/12/03 08:50:21;;;;;;;25.88;23.50;;;6.20;99.90;;;;;;4219225;28;20078;-80
2022/12/03 08:52:41;;;;;;;21.00;19.20;;;6.30;99.90;;;;;;4232147;28;20039;-80
2022/12/03 08:55:29;;;;;;;19.30;17.85;;;6.30;99.90;;;;;;4219374;28;20082;-80
2022/12/03 08:57:49;;;;;;;23.90;21.90;;;6.40;99.90;;;;;;4226461;28;20043;-80
2022/12/03 09:00:21;;;;;;;18.35;16.90;;;6.40;99.90;;;;;;4229383;28;20043;-80
2022/12/03 09:02:46;;;;;;;17.02;15.68;;;6.40;99.90;;;;;;4226031;28;20366;-80
2022/12/03 09:05:17;;;;;;;16.15;15.00;;;6.40;99.90;;;;;;4227380;28;20044;-80
2022/12/03 09:07:37;;;;;;;13.68;12.80;;;6.50;99.90;;;;;;4214016;28;20142;-80
2022/12/03 09:09:57;;;;;;;14.75;13.93;;;6.50;99.90;;;;;;4228695;28;20456;-80
2022/12/03 09:12:16;;;;;;;16.17;15.02;;;6.50;99.90;;;;;;4230302;28;20257;-80
2022/12/03 09:14:36;;;;;;;14.75;13.85;;;6.50;99.90;;;;;;4215538;28;20078;-80
2022/12/03 09:16:56;;;;;;;14.88;13.48;;;6.50;99.90;;;;;;4222951;28;20161;-80
2022/12/03 09:19:16;;;;;;;20.83;19.33;;;6.60;99.90;;;;;;4232655;28;20050;-81
2022/12/03 09:21:36;;;;;;;22.08;20.17;;;6.60;99.90;;;;;;4217077;28;20062;-81
2022/12/03 09:23:56;;;;;;;20.75;19.02;;;6.60;99.90;;;;;;4229545;28;20093;-81
2022/12/03 09:26:16;;;;;;;16.52;15.13;;;6.60;99.90;;;;;;4230024;28;20401;-81
2022/12/03 09:28:35;;;;;;;14.07;13.05;;;6.60;99.90;;;;;;4230983;28;20130;-81
2022/12/03 09:30:55;;;;;;;14.13;13.32;;;6.60;99.90;;;;;;4229162;28;20118;-81
2022/12/03 09:33:15;;;;;;;14.05;13.15;;;6.60;99.90;;;;;;4230590;28;20051;-80
2022/12/03 09:35:35;;;;;;;15.38;14.13;;;6.70;99.90;;;;;;4228422;28;20070;-80
2022/12/03 09:37:55;;;;;;;14.20;13.23;;;6.70;99.90;;;;;;4221626;28;20274;-80
2022/12/03 09:40:16;;;;;;;12.82;12.25;;;6.80;99.90;;;;;;4216124;28;20055;-80
2022/12/03 09:42:36;;;;;;;12.20;11.60;;;6.80;99.90;;;;;;4223898;28;20051;-80
2022/12/03 09:44:56;;;;;;;11.30;10.73;;;6.80;99.90;;;;;;4214890;28;20170;-80
2022/12/03 09:47:16;;;;;;;10.63;10.20;;;6.80;99.90;;;;;;4227513;28;20035;-80
2022/12/03 09:49:37;;;;;;;29.23;26.52;;;6.80;99.90;;;;;;4226279;28;20270;-80
2022/12/03 09:52:00;;;;;;;39.78;34.85;;;6.90;99.90;;;;;;4234489;28;20057;-80
2022/12/03 09:54:24;;;;;;;77.90;50.58;;;6.90;99.90;;;;;;4233298;28;20092;-80
2022/12/03 09:56:44;;;;;;;71.40;46.97;;;6.90;99.90;;;;;;4218156;28;20074;-80
2022/12/03 09:59:14;;;;;;;72.47;43.28;;;6.80;99.90;;;;;;4231666;28;20114;-80
2022/12/03 10:01:35;;;;;;;48.40;40.08;;;6.90;99.90;;;;;;4217963;28;20101;-80
2022/12/03 10:03:55;;;;;;;46.83;37.95;;;6.80;99.90;;;;;;4227640;28;20101;-80
2022/12/03 10:06:21;;;;;;;31.15;28.13;;;6.80;99.90;;;;;;4228815;28;20054;-80
2022/12/03 10:08:41;;;;;;;31.73;28.52;;;6.80;99.90;;;;;;4232108;28;20066;-80
2022/12/03 10:11:02;;;;;;;30.55;27.58;;;6.80;99.90;;;;;;4217389;28;20047;-80
2022/12/03 10:13:29;;;;;;;34.72;31.20;;;6.90;99.90;;;;;;4228293;28;20094;-81
2022/12/03 10:15:48;;;;;;;35.45;31.63;;;6.90;99.90;;;;;;4229413;28;20062;-81
2022/12/03 10:18:23;;;;;;;35.35;31.92;;;6.90;99.90;;;;;;4225516;28;20237;-81
2022/12/03 10:20:44;;;;;;;44.13;39.58;;;6.90;99.90;;;;;;4217329;28;20081;-81
2022/12/03 10:23:04;;;;;;;48.25;43.17;;;7.00;99.90;;;;;;4218444;28;20043;-80
2022/12/03 10:25:24;;;;;;;43.33;38.92;;;7.00;99.90;;;;;;4213216;28;20048;-80
2022/12/03 10:28:04;;;;;;;30.88;27.90;;;7.00;99.90;;;;;;4229046;28;20059;-80
2022/12/03 10:30:27;;;;;;;37.58;31.77;;;7.00;99.90;;;;;;4228634;28;20258;-81
2022/12/03 10:32:48;;;;;;;;;;;6.90;99.90;;;;;;4232266;28;20090;-81
2022/12/03 10:35:39;;;;;;;26.55;24.08;;;7.00;99.90;;;;;;4216663;28;19923;-80
2022/12/03 10:38:00;;;;;;;25.42;23.33;;;6.90;99.90;;;;;;4230905;28;20089;-80
2022/12/03 10:40:34;;;;;;;23.42;21.50;;;7.00;99.90;;;;;;4231828;28;20050;-80
2022/12/03 10:43:13;;;;;;;23.10;21.15;;;6.90;99.90;;;;;;4227346;28;20259;-80
2022/12/03 10:45:33;;;;;;;27.88;25.50;;;6.90;99.90;;;;;;4226956;28;20090;-81
2022/12/03 10:48:11;;;;;;;34.53;31.02;;;7.00;99.90;;;;;;4233056;28;20365;-81
2022/12/03 10:50:32;;;;;;;24.48;22.08;;;7.00;99.90;;;;;;4229353;28;20301;-81
2022/12/03 10:52:52;;;;;;;23.27;21.10;;;7.00;99.90;;;;;;4213738;28;20421;-81
2022/12/03 10:55:13;;;;;;;22.58;20.70;;;7.10;99.90;;;;;;4215590;28;20047;-81
2022/12/03 10:57:33;;;;;;;28.75;26.15;;;7.10;99.90;;;;;;4221652;28;20038;-81
2022/12/03 10:59:53;;;;;;;40.65;36.58;;;7.10;99.90;;;;;;4233055;28;20397;-81
2022/12/03 11:02:22;;;;;;;34.22;29.73;;;7.10;99.90;;;;;;4228181;28;20112;-81
2022/12/03 11:04:42;;;;;;;30.80;27.90;;;7.10;99.90;;;;;;4230181;28;20262;-81
2022/12/03 11:07:10;;;;;;;43.85;39.42;;;7.10;99.90;;;;;;4229971;28;20081;-81
2022/12/03 11:09:32;;;;;;;46.50;40.80;;;7.10;99.90;;;;;;4232743;28;20394;-81
2022/12/03 11:11:52;;;;;;;35.05;31.30;;;7.10;99.90;;;;;;4212839;28;20087;-81
2022/12/03 11:14:12;;;;;;;30.75;27.85;;;7.10;99.90;;;;;;4228957;28;20100;-81
2022/12/03 11:16:40;;;;;;;37.65;33.60;;;7.10;99.90;;;;;;4228538;28;20051;-81
2022/12/03 11:19:01;;;;;;;40.15;35.63;;;7.20;99.90;;;;;;4233552;28;20038;-81
2022/12/03 11:21:22;;;;;;;30.27;26.85;;;7.10;99.90;;;;;;4225793;28;20047;-81
2022/12/03 11:23:45;;;;;;;31.98;28.98;;;7.20;99.90;;;;;;4227781;28;20094;-81
2022/12/03 11:26:05;;;;;;;30.48;27.67;;;7.20;99.90;;;;;;4216490;28;20079;-81
2022/12/03 11:28:33;;;;;;;42.90;38.20;;;7.30;99.90;;;;;;4226832;28;20154;-81
2022/12/03 11:31:01;;;;;;;38.63;34.22;;;7.30;99.90;;;;;;4230953;28;20117;-81
2022/12/03 11:33:24;;;;;;;32.72;29.42;;;7.30;99.90;;;;;;4212325;28;20064;-81
2022/12/03 11:36:03;;;;;;;44.83;34.60;;;7.40;99.90;;;;;;4232180;28;20063;-81
2022/12/03 11:38:44;;;;;;;42.13;37.45;;;7.40;99.90;;;;;;4228024;28;20082;-81
2022/12/03 11:41:27;;;;;;;40.40;34.17;;;7.40;99.90;;;;;;4233014;28;20051;-81
2022/12/03 11:43:56;;;;;;;37.35;33.30;;;7.50;99.90;;;;;;4229437;28;20046;-81
2022/12/03 11:46:21;;;;;;;30.58;27.63;;;7.50;99.90;;;;;;4227422;28;20242;-81
2022/12/03 11:48:49;;;;;;;20.10;18.42;;;7.50;99.90;;;;;;4220398;28;20085;-81
2022/12/03 11:51:13;;;;;;;24.23;22.23;;;7.60;99.90;;;;;;4225550;28;20047;-81
2022/12/03 11:53:34;;;;;;;29.65;26.55;;;7.60;99.90;;;;;;4229963;28;20062;-81
2022/12/03 11:56:07;;;;;;;31.05;27.25;;;7.60;99.90;;;;;;4215803;28;20047;-82
2022/12/03 11:58:29;;;;;;;38.28;34.15;;;7.60;99.90;;;;;;4228984;28;20059;-81
2022/12/03 12:00:51;;;;;;;33.53;29.98;;;7.60;99.90;;;;;;4229656;28;20079;-81
2022/12/03 12:03:30;;;;;;;26.35;24.02;;;7.60;99.90;;;;;;4220396;28;20428;-81
2022/12/03 12:06:03;;;;;;;20.63;19.02;;;7.70;99.90;;;;;;4232777;28;20400;-81
2022/12/03 12:08:22;;;;;;;31.63;28.23;;;7.70;99.90;;;;;;4231878;28;20076;-81
2022/12/03 12:10:44;;;;;;;56.13;38.47;;;7.80;99.90;;;;;;4232789;28;20078;-81
2022/12/03 12:13:04;;;;;;;65.07;49.03;;;7.90;99.90;;;;;;4235661;28;20055;-81
2022/12/03 12:15:41;;;;;;;57.22;44.60;;;7.90;99.90;;;;;;4231005;28;20070;-82
2022/12/03 12:18:32;;;;;;;50.70;41.45;;;7.90;99.90;;;;;;4217667;28;20060;-82
2022/12/03 12:20:52;;;;;;;42.05;37.60;;;8.00;99.90;;;;;;4235092;28;20123;-82
2022/12/03 12:23:27;;;;;;;39.45;35.40;;;8.00;99.90;;;;;;4233195;28;20269;-81
2022/12/03 12:25:47;;;;;;;143.32;108.22;;;8.00;99.90;;;;;;4229972;28;20094;-81
2022/12/03 12:28:13;;;;;;;9.52;9.18;;;7.90;99.90;;;;;;4230145;28;20055;-82
2022/12/03 12:30:34;;;;;;;9.73;9.20;;;7.90;99.90;;;;;;4229176;28;20059;-82
2022/12/03 12:33:09;;;;;;;19.80;18.10;;;7.90;99.90;;;;;;4220347;28;20035;-81
2022/12/03 12:35:31;;;;;;;18.98;16.95;;;8.00;99.90;;;;;;4216848;28;20134;-80